sensor_id;sensor_type;location;lat;lon;timestamp;pressure;altitude;pressure_sealevel;temperature;humidity
19845;BME280;10083;51.038;7.012;2022-07-29T00:02:26;100904.09;;;20.78;100.00
19845;BME280;10083;51.038;7.012;2022-07-29T00:04:55;100906.91;;;20.76;100.00
19845;BME280;10083;51.038;7.012;2022-07-29T00:07:23;100901.38;;;20.64;100.00
19845;BME280;10083;51.038;7.012;2022-07-29T00:09:51;100896.81;;;20.64;100.00
19845;BME280;10083;51.038;7.012;2022-07-29T00:12:19;100894.97;;;20.65;100.00
19845;BME280;10083;51.038;7.012;2022-07-29T00:14:47;100893.88;;;20.67;100.00
19845;BME280;10083;51.038;7.012;2022-07-29T00:17:16;100895.03;;;20.63;100.00
19845;BME280;10083;51.038;7.012;2022-07-29T00:19:43;100886.72;;;20.66;100.00
19845;BME280;10083;51.038;7.012;2022-07-29T00:22:10;100879.00;;;20.73;100.00
19845;BME280;10083;51.038;7.012;2022-07-29T00:24:37;100876.50;;;20.70;100.00
19845;BME280;10083;51.038;7.012;2022-07-29T00:27:07;100871.13;;;20.68;100.00
19845;BME280;10083;51.038;7.012;2022-07-29T00:29:36;100867.72;;;20.51;100.00
19845;BME280;10083;51.038;7.012;2022-07-29T00:32:04;100869.47;;;20.52;100.00
19845;BME280;10083;51.038;7.012;2022-07-29T00:34:34;100864.63;;;20.57;100.00
19845;BME280;10083;51.038;7.012;2022-07-29T00:37:19;100852.56;;;20.61;100.00
19845;BME280;10083;51.038;7.012;2022-07-29T00:39:47;100842.66;;;20.60;100.00
19845;BME280;10083;51.038;7.012;2022-07-29T00:42:14;100847.72;;;20.52;100.00
19845;BME280;10083;51.038;7.012;2022-07-29T00:44:42;100849.56;;;20.51;100.00
19845;BME280;10083;51.038;7.012;2022-07-29T00:47:10;100840.13;;;20.43;100.00
19845;BME280;10083;51.038;7.012;2022-07-29T00:49:41;100839.84;;;20.47;100.00
19845;BME280;10083;51.038;7.012;2022-07-29T00:52:10;100837.19;;;20.46;100.00
19845;BME280;10083;51.038;7.012;2022-07-29T00:54:46;100838.28;;;20.43;100.00
19845;BME280;10083;51.038;7.012;2022-07-29T00:57:16;100835.47;;;20.45;100.00
19845;BME280;10083;51.038;7.012;2022-07-29T00:59:44;100831.09;;;20.42;100.00
19845;BME280;10083;51.038;7.012;2022-07-29T01:02:11;100821.75;;;20.46;100.00
19845;BME280;10083;51.038;7.012;2022-07-29T01:04:41;100806.81;;;20.53;100.00
19845;BME280;10083;51.038;7.012;2022-07-29T01:07:09;100802.81;;;20.45;100.00
19845;BME280;10083;51.038;7.012;2022-07-29T01:09:37;100809.31;;;20.42;100.00
19845;BME280;10083;51.038;7.012;2022-07-29T01:12:05;100808.44;;;20.42;100.00
19845;BME280;10083;51.038;7.012;2022-07-29T01:14:42;100800.28;;;20.42;100.00
19845;BME280;10083;51.038;7.012;2022-07-29T01:17:16;100788.34;;;20.44;100.00
19845;BME280;10083;51.038;7.012;2022-07-29T01:19:54;100793.97;;;20.41;100.00
19845;BME280;10083;51.038;7.012;2022-07-29T01:22:31;100790.75;;;20.35;100.00
19845;BME280;10083;51.038;7.012;2022-07-29T01:31:16;100774.34;;;20.36;100.00
19845;BME280;10083;51.038;7.012;2022-07-29T01:33:50;100764.63;;;20.32;100.00
19845;BME280;10083;51.038;7.012;2022-07-29T01:36:28;100772.91;;;20.30;100.00
19845;BME280;10083;51.038;7.012;2022-07-29T01:39:02;100766.84;;;20.25;100.00
19845;BME280;10083;51.038;7.012;2022-07-29T01:41:32;100746.81;;;20.26;100.00
19845;BME280;10083;51.038;7.012;2022-07-29T01:44:11;100738.00;;;20.23;100.00
19845;BME280;10083;51.038;7.012;2022-07-29T01:46:44;100745.44;;;20.19;100.00
19845;BME280;10083;51.038;7.012;2022-07-29T01:49:21;100744.69;;;20.17;100.00
19845;BME280;10083;51.038;7.012;2022-07-29T01:51:54;100730.41;;;20.14;100.00
19845;BME280;10083;51.038;7.012;2022-07-29T01:54:28;100734.38;;;20.08;100.00
19845;BME280;10083;51.038;7.012;2022-07-29T01:57:42;100729.81;;;20.09;100.00
19845;BME280;10083;51.038;7.012;2022-07-29T02:00:11;100716.53;;;20.04;100.00
19845;BME280;10083;51.038;7.012;2022-07-29T02:02:44;100723.13;;;20.00;100.00
19845;BME280;10083;51.038;7.012;2022-07-29T02:05:14;100723.28;;;19.97;100.00
19845;BME280;10083;51.038;7.012;2022-07-29T02:07:46;100717.09;;;19.95;100.00
19845;BME280;10083;51.038;7.012;2022-07-29T02:10:19;100717.09;;;19.95;100.00
19845;BME280;10083;51.038;7.012;2022-07-29T02:12:50;100720.78;;;19.94;100.00
19845;BME280;10083;51.038;7.012;2022-07-29T02:15:18;100725.34;;;19.94;100.00
19845;BME280;10083;51.038;7.012;2022-07-29T02:18:13;100718.19;;;19.93;100.00
19845;BME280;10083;51.038;7.012;2022-07-29T02:20:42;100709.03;;;19.94;100.00
19845;BME280;10083;51.038;7.012;2022-07-29T02:23:12;100710.97;;;19.92;100.00
19845;BME280;10083;51.038;7.012;2022-07-29T02:25:41;100698.28;;;19.92;100.00
19845;BME280;10083;51.038;7.012;2022-07-29T02:28:09;100701.00;;;19.92;100.00
19845;BME280;10083;51.038;7.012;2022-07-29T02:30:40;100703.28;;;19.84;100.00
19845;BME280;10083;51.038;7.012;2022-07-29T02:33:40;100695.81;;;19.73;100.00
19845;BME280;10083;51.038;7.012;2022-07-29T02:36:08;100687.00;;;19.70;100.00
19845;BME280;10083;51.038;7.012;2022-07-29T02:38:42;100683.00;;;19.75;100.00
19845;BME280;10083;51.038;7.012;2022-07-29T02:41:24;100696.38;;;19.64;100.00
19845;BME280;10083;51.038;7.012;2022-07-29T02:44:06;100656.88;;;19.59;100.00
19845;BME280;10083;51.038;7.012;2022-07-29T02:46:36;100653.28;;;19.58;100.00
19845;BME280;10083;51.038;7.012;2022-07-29T02:49:23;100667.47;;;19.63;100.00
19845;BME280;10083;51.038;7.012;2022-07-29T02:52:00;100679.41;;;19.61;100.00
19845;BME280;10083;51.038;7.012;2022-07-29T02:54:38;100667.84;;;19.57;100.00
19845;BME280;10083;51.038;7.012;2022-07-29T02:57:12;100671.34;;;19.59;100.00
19845;BME280;10083;51.038;7.012;2022-07-29T02:59:51;100668.91;;;19.55;100.00
19845;BME280;10083;51.038;7.012;2022-07-29T03:02:21;100674.63;;;19.50;100.00
19845;BME280;10083;51.038;7.012;2022-07-29T03:04:50;100681.03;;;19.49;100.00
19845;BME280;10083;51.038;7.012;2022-07-29T03:07:30;100683.66;;;19.51;100.00
19845;BME280;10083;51.038;7.012;2022-07-29T03:09:58;100695.13;;;19.56;100.00
19845;BME280;10083;51.038;7.012;2022-07-29T03:12:42;100700.19;;;19.62;100.00
19845;BME280;10083;51.038;7.012;2022-07-29T03:15:10;100732.19;;;19.57;100.00
19845;BME280;10083;51.038;7.012;2022-07-29T03:17:41;100748.28;;;19.60;100.00
19845;BME280;10083;51.038;7.012;2022-07-29T03:20:11;100749.66;;;19.67;100.00
19845;BME280;10083;51.038;7.012;2022-07-29T03:22:39;100754.06;;;19.69;100.00
19845;BME280;10083;51.038;7.012;2022-07-29T03:25:10;100764.53;;;19.75;100.00
19845;BME280;10083;51.038;7.012;2022-07-29T03:27:51;100758.41;;;19.72;100.00
19845;BME280;10083;51.038;7.012;2022-07-29T03:30:18;100760.13;;;19.59;100.00
19845;BME280;10083;51.038;7.012;2022-07-29T03:32:52;100755.69;;;19.58;100.00
19845;BME280;10083;51.038;7.012;2022-07-29T03:35:21;100761.53;;;19.66;100.00
19845;BME280;10083;51.038;7.012;2022-07-29T03:37:50;100763.25;;;19.67;100.00
19845;BME280;10083;51.038;7.012;2022-07-29T03:40:21;100755.28;;;19.64;100.00
19845;BME280;10083;51.038;7.012;2022-07-29T03:42:51;100764.31;;;19.64;100.00
19845;BME280;10083;51.038;7.012;2022-07-29T03:45:24;100767.63;;;19.69;100.00
19845;BME280;10083;51.038;7.012;2022-07-29T03:48:01;100767.44;;;19.72;100.00
19845;BME280;10083;51.038;7.012;2022-07-29T03:50:32;100775.03;;;19.81;100.00
19845;BME280;10083;51.038;7.012;2022-07-29T03:53:03;100773.19;;;19.82;100.00
19845;BME280;10083;51.038;7.012;2022-07-29T03:55:41;100775.09;;;19.66;100.00
19845;BME280;10083;51.038;7.012;2022-07-29T03:58:09;100773.94;;;19.70;100.00
19845;BME280;10083;51.038;7.012;2022-07-29T04:00:39;100780.00;;;19.75;100.00
19845;BME280;10083;51.038;7.012;2022-07-29T04:03:07;100780.06;;;19.73;100.00
19845;BME280;10083;51.038;7.012;2022-07-29T04:05:38;100776.78;;;19.82;100.00
19845;BME280;10083;51.038;7.012;2022-07-29T04:08:06;100776.28;;;19.76;100.00
19845;BME280;10083;51.038;7.012;2022-07-29T04:10:34;100796.28;;;19.75;100.00
19845;BME280;10083;51.038;7.012;2022-07-29T04:13:01;100798.22;;;19.73;100.00
19845;BME280;10083;51.038;7.012;2022-07-29T04:15:43;100809.50;;;19.81;100.00
19845;BME280;10083;51.038;7.012;2022-07-29T04:18:11;100792.88;;;19.71;100.00
19845;BME280;10083;51.038;7.012;2022-07-29T04:20:41;100789.38;;;19.69;100.00
19845;BME280;10083;51.038;7.012;2022-07-29T04:23:08;100797.06;;;19.77;100.00
19845;BME280;10083;51.038;7.012;2022-07-29T04:25:37;100804.53;;;19.73;100.00
19845;BME280;10083;51.038;7.012;2022-07-29T04:28:05;100802.09;;;19.69;100.00
19845;BME280;10083;51.038;7.012;2022-07-29T04:30:49;100794.41;;;19.61;100.00
19845;BME280;10083;51.038;7.012;2022-07-29T04:33:16;100792.78;;;19.73;100.00
19845;BME280;10083;51.038;7.012;2022-07-29T04:35:46;100797.53;;;19.69;100.00
19845;BME280;10083;51.038;7.012;2022-07-29T04:38:13;100799.09;;;19.73;100.00
19845;BME280;10083;51.038;7.012;2022-07-29T04:40:52;100799.56;;;19.66;100.00
19845;BME280;10083;51.038;7.012;2022-07-29T04:43:20;100798.78;;;19.64;100.00
19845;BME280;10083;51.038;7.012;2022-07-29T04:45:55;100805.59;;;19.71;100.00
19845;BME280;10083;51.038;7.012;2022-07-29T04:48:22;100795.03;;;19.80;100.00
19845;BME280;10083;51.038;7.012;2022-07-29T04:51:05;100791.34;;;19.81;100.00
19845;BME280;10083;51.038;7.012;2022-07-29T04:53:34;100792.81;;;19.87;100.00
19845;BME280;10083;51.038;7.012;2022-07-29T04:56:02;100792.88;;;19.71;100.00
19845;BME280;10083;51.038;7.012;2022-07-29T04:58:30;100797.84;;;19.79;100.00
19845;BME280;10083;51.038;7.012;2022-07-29T05:00:57;100802.50;;;19.77;100.00
19845;BME280;10083;51.038;7.012;2022-07-29T05:03:24;100797.34;;;19.72;100.00
19845;BME280;10083;51.038;7.012;2022-07-29T05:05:51;100803.47;;;19.76;100.00
19845;BME280;10083;51.038;7.012;2022-07-29T05:08:24;100808.53;;;19.82;100.00
19845;BME280;10083;51.038;7.012;2022-07-29T05:10:51;100814.66;;;19.85;100.00
19845;BME280;10083;51.038;7.012;2022-07-29T05:13:27;100820.97;;;19.86;100.00
19845;BME280;10083;51.038;7.012;2022-07-29T05:15:54;100820.00;;;19.87;100.00
19845;BME280;10083;51.038;7.012;2022-07-29T05:18:27;100823.28;;;19.78;100.00
19845;BME280;10083;51.038;7.012;2022-07-29T05:20:55;100816.81;;;19.95;100.00
19845;BME280;10083;51.038;7.012;2022-07-29T05:23:24;100821.00;;;20.00;100.00
19845;BME280;10083;51.038;7.012;2022-07-29T05:25:51;100822.16;;;19.96;100.00
19845;BME280;10083;51.038;7.012;2022-07-29T05:28:20;100829.16;;;20.00;100.00
19845;BME280;10083;51.038;7.012;2022-07-29T05:30:47;100823.16;;;20.09;100.00
19845;BME280;10083;51.038;7.012;2022-07-29T05:33:16;100821.88;;;20.15;100.00
19845;BME280;10083;51.038;7.012;2022-07-29T05:35:43;100814.66;;;20.29;100.00
19845;BME280;10083;51.038;7.012;2022-07-29T05:38:10;100835.59;;;20.13;100.00
19845;BME280;10083;51.038;7.012;2022-07-29T05:40:38;100832.75;;;20.15;100.00
19845;BME280;10083;51.038;7.012;2022-07-29T05:43:10;100826.84;;;20.08;100.00
19845;BME280;10083;51.038;7.012;2022-07-29T05:45:39;100830.34;;;20.24;100.00
19845;BME280;10083;51.038;7.012;2022-07-29T05:48:10;100830.97;;;20.29;100.00
19845;BME280;10083;51.038;7.012;2022-07-29T05:50:37;100836.19;;;20.18;100.00
19845;BME280;10083;51.038;7.012;2022-07-29T05:53:04;100830.41;;;20.39;100.00
19845;BME280;10083;51.038;7.012;2022-07-29T05:55:31;100837.31;;;20.30;100.00
19845;BME280;10083;51.038;7.012;2022-07-29T05:58:00;100843.22;;;20.37;100.00
19845;BME280;10083;51.038;7.012;2022-07-29T06:00:29;100853.72;;;20.43;100.00
19845;BME280;10083;51.038;7.012;2022-07-29T06:03:01;100859.34;;;20.54;100.00
19845;BME280;10083;51.038;7.012;2022-07-29T06:05:28;100865.50;;;20.57;100.00
19845;BME280;10083;51.038;7.012;2022-07-29T06:08:01;100883.69;;;20.57;100.00
19845;BME280;10083;51.038;7.012;2022-07-29T06:10:28;100868.31;;;20.56;100.00
19845;BME280;10083;51.038;7.012;2022-07-29T06:13:04;100872.00;;;20.69;100.00
19845;BME280;10083;51.038;7.012;2022-07-29T06:15:31;100875.03;;;20.64;100.00
19845;BME280;10083;51.038;7.012;2022-07-29T06:17:59;100880.97;;;20.71;100.00
19845;BME280;10083;51.038;7.012;2022-07-29T06:20:27;100875.31;;;20.88;100.00
19845;BME280;10083;51.038;7.012;2022-07-29T06:22:55;100869.88;;;20.88;100.00
19845;BME280;10083;51.038;7.012;2022-07-29T06:25:22;100871.50;;;20.76;100.00
19845;BME280;10083;51.038;7.012;2022-07-29T06:27:49;100879.19;;;20.84;100.00
19845;BME280;10083;51.038;7.012;2022-07-29T06:30:20;100873.66;;;21.00;100.00
19845;BME280;10083;51.038;7.012;2022-07-29T06:32:49;100884.44;;;21.15;100.00
19845;BME280;10083;51.038;7.012;2022-07-29T06:35:17;100881.41;;;21.20;100.00
19845;BME280;10083;51.038;7.012;2022-07-29T06:37:45;100880.81;;;21.29;100.00
19845;BME280;10083;51.038;7.012;2022-07-29T06:40:12;100880.13;;;21.40;100.00
19845;BME280;10083;51.038;7.012;2022-07-29T06:42:54;100888.66;;;21.48;100.00
19845;BME280;10083;51.038;7.012;2022-07-29T06:45:23;100901.50;;;21.46;100.00
19845;BME280;10083;51.038;7.012;2022-07-29T06:47:52;100892.13;;;21.50;100.00
19845;BME280;10083;51.038;7.012;2022-07-29T06:50:19;100885.38;;;21.43;100.00
19845;BME280;10083;51.038;7.012;2022-07-29T06:52:47;100900.84;;;21.42;100.00
19845;BME280;10083;51.038;7.012;2022-07-29T06:55:14;100899.81;;;21.31;100.00
19845;BME280;10083;51.038;7.012;2022-07-29T06:57:50;100899.88;;;21.29;100.00
19845;BME280;10083;51.038;7.012;2022-07-29T07:00:17;100888.91;;;21.31;100.00
19845;BME280;10083;51.038;7.012;2022-07-29T07:02:47;100891.31;;;21.07;100.00
19845;BME280;10083;51.038;7.012;2022-07-29T07:05:14;100888.03;;;21.02;100.00
19845;BME280;10083;51.038;7.012;2022-07-29T07:07:43;100884.63;;;20.98;100.00
19845;BME280;10083;51.038;7.012;2022-07-29T07:10:12;100882.88;;;20.97;100.00
19845;BME280;10083;51.038;7.012;2022-07-29T07:12:43;100879.75;;;21.03;100.00
19845;BME280;10083;51.038;7.012;2022-07-29T07:15:10;100876.94;;;21.05;100.00
19845;BME280;10083;51.038;7.012;2022-07-29T07:17:39;100862.66;;;21.01;100.00
19845;BME280;10083;51.038;7.012;2022-07-29T07:20:09;100862.16;;;20.95;100.00
19845;BME280;10083;51.038;7.012;2022-07-29T07:22:37;100857.03;;;20.90;100.00
19845;BME280;10083;51.038;7.012;2022-07-29T07:25:05;100870.56;;;20.92;100.00
19845;BME280;10083;51.038;7.012;2022-07-29T07:27:33;100877.41;;;20.97;100.00
19845;BME280;10083;51.038;7.012;2022-07-29T07:30:00;100878.50;;;21.09;100.00
19845;BME280;10083;51.038;7.012;2022-07-29T07:32:45;100821.47;;;21.06;100.00
19845;BME280;10083;51.038;7.012;2022-07-29T07:35:13;100831.53;;;21.05;100.00
19845;BME280;10083;51.038;7.012;2022-07-29T07:37:45;100808.16;;;21.15;100.00
19845;BME280;10083;51.038;7.012;2022-07-29T07:40:12;100803.19;;;21.22;100.00
19845;BME280;10083;51.038;7.012;2022-07-29T07:42:42;100817.19;;;21.30;100.00
19845;BME280;10083;51.038;7.012;2022-07-29T07:45:10;100793.50;;;21.18;100.00
19845;BME280;10083;51.038;7.012;2022-07-29T07:47:46;100790.09;;;21.14;100.00
19845;BME280;10083;51.038;7.012;2022-07-29T07:50:15;100803.88;;;21.11;100.00
19845;BME280;10083;51.038;7.012;2022-07-29T07:52:54;100811.28;;;21.09;100.00
19845;BME280;10083;51.038;7.012;2022-07-29T07:55:29;100810.00;;;21.15;100.00
19845;BME280;10083;51.038;7.012;2022-07-29T07:57:56;100797.53;;;21.11;100.00
19845;BME280;10083;51.038;7.012;2022-07-29T08:00:23;100788.34;;;21.13;100.00
19845;BME280;10083;51.038;7.012;2022-07-29T08:02:50;100786.34;;;21.30;100.00
19845;BME280;10083;51.038;7.012;2022-07-29T08:05:19;100796.91;;;21.34;100.00
19845;BME280;10083;51.038;7.012;2022-07-29T08:07:47;100783.75;;;21.41;100.00
19845;BME280;10083;51.038;7.012;2022-07-29T08:10:18;100784.19;;;21.35;100.00
19845;BME280;10083;51.038;7.012;2022-07-29T08:13:06;100774.59;;;21.42;100.00
19845;BME280;10083;51.038;7.012;2022-07-29T08:15:35;100786.25;;;21.31;100.00
19845;BME280;10083;51.038;7.012;2022-07-29T08:18:02;100789.66;;;21.20;100.00
19845;BME280;10083;51.038;7.012;2022-07-29T08:20:31;100788.75;;;21.34;100.00
19845;BME280;10083;51.038;7.012;2022-07-29T08:23:01;100802.94;;;21.39;100.00
19845;BME280;10083;51.038;7.012;2022-07-29T08:25:28;100821.34;;;21.36;100.00
19845;BME280;10083;51.038;7.012;2022-07-29T08:27:55;100811.44;;;21.35;100.00
19845;BME280;10083;51.038;7.012;2022-07-29T08:30:23;100771.53;;;21.34;100.00
19845;BME280;10083;51.038;7.012;2022-07-29T08:32:51;100739.22;;;21.28;100.00
19845;BME280;10083;51.038;7.012;2022-07-29T08:35:19;100715.38;;;21.18;100.00
19845;BME280;10083;51.038;7.012;2022-07-29T08:37:48;100737.38;;;21.28;100.00
19845;BME280;10083;51.038;7.012;2022-07-29T08:40:19;100711.09;;;21.14;100.00
19845;BME280;10083;51.038;7.012;2022-07-29T08:42:46;100681.50;;;21.08;100.00
19845;BME280;10083;51.038;7.012;2022-07-29T08:45:23;100654.00;;;21.13;100.00
19845;BME280;10083;51.038;7.012;2022-07-29T08:47:50;100658.06;;;21.06;100.00
19845;BME280;10083;51.038;7.012;2022-07-29T08:50:17;100621.03;;;21.03;100.00
19845;BME280;10083;51.038;7.012;2022-07-29T08:52:44;100574.66;;;21.05;100.00
19845;BME280;10083;51.038;7.012;2022-07-29T08:55:15;100543.75;;;21.18;100.00
19845;BME280;10083;51.038;7.012;2022-07-29T08:57:43;100550.91;;;21.19;100.00
19845;BME280;10083;51.038;7.012;2022-07-29T09:00:11;100535.03;;;21.26;100.00
19845;BME280;10083;51.038;7.012;2022-07-29T09:02:41;100574.25;;;21.49;100.00
19845;BME280;10083;51.038;7.012;2022-07-29T09:05:11;100541.75;;;21.46;100.00
19845;BME280;10083;51.038;7.012;2022-07-29T09:07:39;100552.78;;;21.44;100.00
19845;BME280;10083;51.038;7.012;2022-07-29T09:10:09;100613.63;;;21.57;100.00
19845;BME280;10083;51.038;7.012;2022-07-29T09:12:40;100641.63;;;21.72;100.00
19845;BME280;10083;51.038;7.012;2022-07-29T09:15:08;100695.22;;;21.34;100.00
19845;BME280;10083;51.038;7.012;2022-07-29T09:17:43;100643.16;;;21.51;100.00
19845;BME280;10083;51.038;7.012;2022-07-29T09:20:11;100686.91;;;21.75;100.00
19845;BME280;10083;51.038;7.012;2022-07-29T09:22:39;100690.69;;;21.72;100.00
19845;BME280;10083;51.038;7.012;2022-07-29T09:25:06;100698.78;;;21.86;100.00
19845;BME280;10083;51.038;7.012;2022-07-29T09:27:35;100690.72;;;21.97;100.00
19845;BME280;10083;51.038;7.012;2022-07-29T09:30:05;100666.31;;;21.96;100.00
19845;BME280;10083;51.038;7.012;2022-07-29T09:32:54;100697.72;;;22.01;100.00
19845;BME280;10083;51.038;7.012;2022-07-29T09:35:25;100676.56;;;21.92;100.00
19845;BME280;10083;51.038;7.012;2022-07-29T09:37:53;100683.09;;;22.02;100.00
19845;BME280;10083;51.038;7.012;2022-07-29T09:40:22;100682.03;;;21.92;100.00
19845;BME280;10083;51.038;7.012;2022-07-29T09:42:51;100685.25;;;21.97;100.00
19845;BME280;10083;51.038;7.012;2022-07-29T09:45:30;100704.59;;;22.56;100.00
19845;BME280;10083;51.038;7.012;2022-07-29T09:48:13;100722.25;;;22.63;100.00
19845;BME280;10083;51.038;7.012;2022-07-29T09:50:42;100723.38;;;22.73;100.00
19845;BME280;10083;51.038;7.012;2022-07-29T09:53:37;100751.50;;;22.86;100.00
19845;BME280;10083;51.038;7.012;2022-07-29T09:56:05;100729.03;;;23.07;100.00
19845;BME280;10083;51.038;7.012;2022-07-29T09:58:33;100734.91;;;23.13;100.00
19845;BME280;10083;51.038;7.012;2022-07-29T10:01:02;100748.78;;;23.34;100.00
19845;BME280;10083;51.038;7.012;2022-07-29T10:03:29;100757.84;;;23.11;100.00
19845;BME280;10083;51.038;7.012;2022-07-29T10:06:07;100723.22;;;23.35;100.00
19845;BME280;10083;51.038;7.012;2022-07-29T10:08:36;100744.69;;;23.52;100.00
19845;BME280;10083;51.038;7.012;2022-07-29T10:11:11;100733.94;;;23.14;100.00
19845;BME280;10083;51.038;7.012;2022-07-29T10:13:39;100731.72;;;22.95;100.00
19845;BME280;10083;51.038;7.012;2022-07-29T10:16:12;100704.91;;;23.01;100.00
19845;BME280;10083;51.038;7.012;2022-07-29T10:18:40;100716.47;;;23.04;100.00
19845;BME280;10083;51.038;7.012;2022-07-29T10:21:08;100725.88;;;23.24;100.00
19845;BME280;10083;51.038;7.012;2022-07-29T10:23:39;100748.50;;;23.26;100.00
19845;BME280;10083;51.038;7.012;2022-07-29T10:26:06;100770.28;;;23.27;100.00
19845;BME280;10083;51.038;7.012;2022-07-29T10:28:34;100758.59;;;23.02;100.00
19845;BME280;10083;51.038;7.012;2022-07-29T10:31:04;100719.88;;;22.59;100.00
19845;BME280;10083;51.038;7.012;2022-07-29T10:33:51;100730.09;;;22.80;100.00
19845;BME280;10083;51.038;7.012;2022-07-29T10:36:32;100748.50;;;22.78;100.00
19845;BME280;10083;51.038;7.012;2022-07-29T10:39:18;100751.72;;;22.96;100.00
19845;BME280;10083;51.038;7.012;2022-07-29T10:42:02;100751.75;;;23.07;100.00
19845;BME280;10083;51.038;7.012;2022-07-29T10:44:47;100761.38;;;23.13;100.00
19845;BME280;10083;51.038;7.012;2022-07-29T10:47:27;100777.00;;;23.34;100.00
19845;BME280;10083;51.038;7.012;2022-07-29T10:49:59;100760.19;;;23.28;100.00
19845;BME280;10083;51.038;7.012;2022-07-29T10:52:53;100730.31;;;23.72;100.00
19845;BME280;10083;51.038;7.012;2022-07-29T10:55:40;100770.75;;;24.26;100.00
19845;BME280;10083;51.038;7.012;2022-07-29T10:58:15;100786.34;;;24.02;100.00
19845;BME280;10083;51.038;7.012;2022-07-29T11:00:50;100796.22;;;24.15;100.00
19845;BME280;10083;51.038;7.012;2022-07-29T11:03:43;100799.38;;;24.33;100.00
19845;BME280;10083;51.038;7.012;2022-07-29T11:06:19;100781.56;;;23.81;100.00
19845;BME280;10083;51.038;7.012;2022-07-29T11:09:14;100812.53;;;24.17;100.00
19845;BME280;10083;51.038;7.012;2022-07-29T11:11:42;100806.34;;;24.26;100.00
19845;BME280;10083;51.038;7.012;2022-07-29T11:14:13;100796.91;;;24.63;100.00
19845;BME280;10083;51.038;7.012;2022-07-29T11:17:01;100821.91;;;25.69;100.00
19845;BME280;10083;51.038;7.012;2022-07-29T11:19:38;100819.63;;;26.47;100.00
19845;BME280;10083;51.038;7.012;2022-07-29T11:22:09;100852.28;;;26.91;100.00
19845;BME280;10083;51.038;7.012;2022-07-29T11:24:38;100865.44;;;26.88;100.00
19845;BME280;10083;51.038;7.012;2022-07-29T11:27:06;100868.00;;;27.10;100.00
19845;BME280;10083;51.038;7.012;2022-07-29T11:29:49;100882.72;;;26.99;100.00
19845;BME280;10083;51.038;7.012;2022-07-29T11:32:17;100880.09;;;26.98;100.00
19845;BME280;10083;51.038;7.012;2022-07-29T11:34:46;100878.44;;;26.86;100.00
19845;BME280;10083;51.038;7.012;2022-07-29T11:37:22;100874.66;;;27.48;100.00
19845;BME280;10083;51.038;7.012;2022-07-29T11:40:16;100888.66;;;28.23;100.00
19845;BME280;10083;51.038;7.012;2022-07-29T11:42:46;100902.78;;;28.86;100.00
19845;BME280;10083;51.038;7.012;2022-07-29T11:45:20;100912.84;;;29.14;100.00
19845;BME280;10083;51.038;7.012;2022-07-29T11:47:52;100920.44;;;28.27;100.00
19845;BME280;10083;51.038;7.012;2022-07-29T11:50:31;100913.78;;;27.61;100.00
19845;BME280;10083;51.038;7.012;2022-07-29T11:53:02;100909.41;;;28.37;100.00
19845;BME280;10083;51.038;7.012;2022-07-29T11:55:29;100909.75;;;29.27;100.00
19845;BME280;10083;51.038;7.012;2022-07-29T11:58:02;100914.69;;;29.87;100.00
19845;BME280;10083;51.038;7.012;2022-07-29T12:00:31;100920.84;;;30.17;100.00
19845;BME280;10083;51.038;7.012;2022-07-29T12:03:24;100928.66;;;29.76;100.00
19845;BME280;10083;51.038;7.012;2022-07-29T12:05:51;100940.09;;;29.91;100.00
19845;BME280;10083;51.038;7.012;2022-07-29T12:08:40;100944.66;;;29.18;100.00
19845;BME280;10083;51.038;7.012;2022-07-29T12:11:17;100946.53;;;28.71;100.00
19845;BME280;10083;51.038;7.012;2022-07-29T12:13:53;100943.16;;;29.33;100.00
19845;BME280;10083;51.038;7.012;2022-07-29T12:16:21;100947.47;;;30.35;100.00
19845;BME280;10083;51.038;7.012;2022-07-29T12:18:56;100946.53;;;30.27;96.48
19845;BME280;10083;51.038;7.012;2022-07-29T12:21:24;100952.38;;;30.24;97.30
19845;BME280;10083;51.038;7.012;2022-07-29T12:23:59;100947.91;;;28.94;100.00
19845;BME280;10083;51.038;7.012;2022-07-29T12:26:28;100945.25;;;29.02;99.91
19845;BME280;10083;51.038;7.012;2022-07-29T12:29:00;100953.03;;;29.26;100.00
19845;BME280;10083;51.038;7.012;2022-07-29T12:31:27;100952.69;;;29.76;96.98
19845;BME280;10083;51.038;7.012;2022-07-29T12:34:03;100949.97;;;28.92;100.00
19845;BME280;10083;51.038;7.012;2022-07-29T12:36:31;100950.06;;;30.01;95.25
19845;BME280;10083;51.038;7.012;2022-07-29T12:39:00;100955.75;;;31.14;91.23
19845;BME280;10083;51.038;7.012;2022-07-29T12:41:28;100949.41;;;30.78;90.43
19845;BME280;10083;51.038;7.012;2022-07-29T12:43:56;100947.69;;;30.24;94.59
19845;BME280;10083;51.038;7.012;2022-07-29T12:46:23;100949.09;;;29.65;93.01
19845;BME280;10083;51.038;7.012;2022-07-29T12:48:51;100948.44;;;29.07;93.92
19845;BME280;10083;51.038;7.012;2022-07-29T12:51:28;100952.75;;;29.66;100.00
19845;BME280;10083;51.038;7.012;2022-07-29T12:54:06;100950.56;;;30.15;95.10
19845;BME280;10083;51.038;7.012;2022-07-29T12:56:34;100942.88;;;30.26;92.87
19845;BME280;10083;51.038;7.012;2022-07-29T12:59:21;100935.53;;;31.98;88.55
19845;BME280;10083;51.038;7.012;2022-07-29T13:01:50;100942.19;;;32.21;83.72
19845;BME280;10083;51.038;7.012;2022-07-29T13:04:24;100936.53;;;31.13;86.72
19845;BME280;10083;51.038;7.012;2022-07-29T13:06:58;100943.03;;;30.25;88.03
19845;BME280;10083;51.038;7.012;2022-07-29T13:09:38;100940.13;;;30.26;92.03
19845;BME280;10083;51.038;7.012;2022-07-29T13:12:06;100934.13;;;30.31;90.88